Acapulco G. Alvarez, Mexico

4:10 AM CDT on September 04, 2015 (GMT -0500)
Acapulco AMK | | Change Station
CLOSE
Current Station
Personal Weather Station
Location: Acapulco, GUERRERO
Elevation: 23 ft
Nearby Weather Stations

Elev 23 ft 16.78 °N, 99.81 °W | Updated 8 minutes ago

Overcast
Overcast
80.3 °F
Feels Like 85 °F
N
0.0
Wind Variable Wind from West
Gusts 2.0 mph

Today
High -- | Low -- °F
--% Chance of Precip.
Yesterday
High -- | Low -- °F
Precip. -- in
7:25 AM 7:49 PM
Waning Gibbous, 61% visible
Pressure 29.82 in
Visibility 8.0 miles
Clouds Scattered Clouds 8000 ft
Mostly Cloudy 10000 ft
Overcast 30000 ft
Heat Index 85 °F
Dew Point 75 °F
Humidity 83%
Rainfall 0.00 in
Snow Depth Not available.
UV 0 out of 12
Pollen Not available.
Air Quality Not available.
Flu Activity Not available.
METAR MMAA 040845Z 00000KT 8SM SCT080 BKN100 OVC300 26/24 A2983 RMK SLP096 57013 970 8/077 HZY
Pressure 29.82 in
Visibility 8.0 miles
Clouds Scattered Clouds 8000 ft
Mostly Cloudy 10000 ft
Overcast 30000 ft
Heat Index 85 °F
Dew Point 75 °F
Humidity 83%
Rainfall 0.00 in
Snow Depth Not available.
UV 0 out of 12
Pollen Not available.
Air Quality Not available.
Flu Activity Not available.
METAR MMAA 040845Z 00000KT 8SM SCT080 BKN100 OVC300 26/24 A2983 RMK SLP096 57013 970 8/077 HZY

10-Day Weather Forecast

×

Almanac

Astronomy

Sep. 04, 2015 Rise Set
Actual Time
Civil Twilight
Nautical Twilight
Astronomical Twilight
Moon
Length of Visible Light
Length of Day
Tomorrow will be .
, % of the Moon is Illuminated

Today's Extremes

Country Highs Country Lows

Community

WunderPhotos

Upload Photos

1,852,142 photos uploaded!

WunderBlogs® & News

Nearby

Air Quality

  Air Quality AQ Index Pollutant
Not available.

Snow Depth

Station Depth Elevation

Earthquake Activity

City Distance Mag. Time & Date
Minimum magnitude displayed is 2.5.

Coastal Water Temperatures

Place Temperature

Stations

Nearby Weather Stations

Station Location Temp. Windchill Dew Point Humidity Wind Precip. Elev Updated Type